sensor_id;sensor_type;location;lat;lon;timestamp;temperature;humidity
15259;DHT22;34462;51.368;12.364;2022-09-24T00:02:15;10.90;99.90
15259;DHT22;34462;51.368;12.364;2022-09-24T00:04:43;10.80;99.90
15259;DHT22;34462;51.368;12.364;2022-09-24T00:07:13;10.80;99.90
15259;DHT22;34462;51.368;12.364;2022-09-24T00:09:41;10.70;99.90
15259;DHT22;34462;51.368;12.364;2022-09-24T00:12:09;10.70;99.90
15259;DHT22;34462;51.368;12.364;2022-09-24T00:14:39;10.60;99.90
15259;DHT22;34462;51.368;12.364;2022-09-24T00:17:07;10.70;99.90
15259;DHT22;34462;51.368;12.364;2022-09-24T00:19:35;10.70;99.90
15259;DHT22;34462;51.368;12.364;2022-09-24T00:22:03;10.70;99.90
15259;DHT22;34462;51.368;12.364;2022-09-24T00:24:32;10.60;99.90
15259;DHT22;34462;51.368;12.364;2022-09-24T00:27:26;10.60;99.90
15259;DHT22;34462;51.368;12.364;2022-09-24T00:29:54;10.50;99.90
15259;DHT22;34462;51.368;12.364;2022-09-24T00:32:22;10.60;99.90
15259;DHT22;34462;51.368;12.364;2022-09-24T00:34:50;10.50;99.90
15259;DHT22;34462;51.368;12.364;2022-09-24T00:37:19;10.50;99.90
15259;DHT22;34462;51.368;12.364;2022-09-24T00:39:49;10.50;99.90
15259;DHT22;34462;51.368;12.364;2022-09-24T00:42:17;10.40;99.90
15259;DHT22;34462;51.368;12.364;2022-09-24T00:44:49;10.40;99.90
15259;DHT22;34462;51.368;12.364;2022-09-24T00:47:32;10.40;99.90
15259;DHT22;34462;51.368;12.364;2022-09-24T00:50:16;10.30;99.90
15259;DHT22;34462;51.368;12.364;2022-09-24T00:52:50;10.30;99.90
15259;DHT22;34462;51.368;12.364;2022-09-24T00:55:24;10.30;99.90
15259;DHT22;34462;51.368;12.364;2022-09-24T00:57:56;10.30;99.90
15259;DHT22;34462;51.368;12.364;2022-09-24T01:00:27;10.50;99.90
15259;DHT22;34462;51.368;12.364;2022-09-24T01:02:58;10.50;99.90
15259;DHT22;34462;51.368;12.364;2022-09-24T01:05:29;10.50;99.90
15259;DHT22;34462;51.368;12.364;2022-09-24T01:07:58;10.50;99.90
15259;DHT22;34462;51.368;12.364;2022-09-24T01:10:38;10.60;99.90
15259;DHT22;34462;51.368;12.364;2022-09-24T01:13:36;10.60;99.90
15259;DHT22;34462;51.368;12.364;2022-09-24T01:16:37;10.50;99.90
15259;DHT22;34462;51.368;12.364;2022-09-24T01:19:28;10.50;99.90
15259;DHT22;34462;51.368;12.364;2022-09-24T01:22:24;10.60;99.90
15259;DHT22;34462;51.368;12.364;2022-09-24T01:25:06;10.60;99.90
15259;DHT22;34462;51.368;12.364;2022-09-24T01:27:55;10.60;99.90
15259;DHT22;34462;51.368;12.364;2022-09-24T01:30:37;10.70;99.90
15259;DHT22;34462;51.368;12.364;2022-09-24T01:33:12;10.60;99.90
15259;DHT22;34462;51.368;12.364;2022-09-24T01:35:49;10.60;99.90
15259;DHT22;34462;51.368;12.364;2022-09-24T01:38:22;10.60;99.90
15259;DHT22;34462;51.368;12.364;2022-09-24T01:40:56;10.70;99.90
15259;DHT22;34462;51.368;12.364;2022-09-24T01:43:28;10.80;99.90
15259;DHT22;34462;51.368;12.364;2022-09-24T01:46:01;10.80;99.90
15259;DHT22;34462;51.368;12.364;2022-09-24T01:48:34;10.80;99.90
15259;DHT22;34462;51.368;12.364;2022-09-24T01:51:07;10.80;99.90
15259;DHT22;34462;51.368;12.364;2022-09-24T01:53:43;10.80;99.90
15259;DHT22;34462;51.368;12.364;2022-09-24T01:56:17;10.80;99.90
15259;DHT22;34462;51.368;12.364;2022-09-24T01:58:57;10.80;99.90
15259;DHT22;34462;51.368;12.364;2022-09-24T02:01:33;10.80;99.90
15259;DHT22;34462;51.368;12.364;2022-09-24T02:04:11;10.80;99.90
15259;DHT22;34462;51.368;12.364;2022-09-24T02:06:45;10.70;99.90
15259;DHT22;34462;51.368;12.364;2022-09-24T02:09:31;10.70;99.90
15259;DHT22;34462;51.368;12.364;2022-09-24T02:12:04;10.60;99.90
15259;DHT22;34462;51.368;12.364;2022-09-24T02:14:38;10.60;99.90
15259;DHT22;34462;51.368;12.364;2022-09-24T02:17:13;10.60;99.90
15259;DHT22;34462;51.368;12.364;2022-09-24T02:19:42;10.60;99.90
15259;DHT22;34462;51.368;12.364;2022-09-24T02:22:13;10.60;99.90
15259;DHT22;34462;51.368;12.364;2022-09-24T02:24:45;10.60;99.90
15259;DHT22;34462;51.368;12.364;2022-09-24T02:27:16;10.60;99.90
15259;DHT22;34462;51.368;12.364;2022-09-24T02:29:45;10.60;99.90
15259;DHT22;34462;51.368;12.364;2022-09-24T02:32:17;10.70;99.90
15259;DHT22;34462;51.368;12.364;2022-09-24T02:34:50;10.50;99.90
15259;DHT22;34462;51.368;12.364;2022-09-24T02:37:22;10.60;99.90
15259;DHT22;34462;51.368;12.364;2022-09-24T02:39:51;10.60;99.90
15259;DHT22;34462;51.368;12.364;2022-09-24T02:42:19;10.60;99.90
15259;DHT22;34462;51.368;12.364;2022-09-24T02:44:48;10.60;99.90
15259;DHT22;34462;51.368;12.364;2022-09-24T02:47:19;10.50;99.90
15259;DHT22;34462;51.368;12.364;2022-09-24T02:49:47;10.50;99.90
15259;DHT22;34462;51.368;12.364;2022-09-24T02:52:15;10.50;99.90
15259;DHT22;34462;51.368;12.364;2022-09-24T02:54:44;10.50;99.90
15259;DHT22;34462;51.368;12.364;2022-09-24T02:57:12;10.40;99.90
15259;DHT22;34462;51.368;12.364;2022-09-24T02:59:40;10.40;99.90
15259;DHT22;34462;51.368;12.364;2022-09-24T03:02:08;10.40;99.90
15259;DHT22;34462;51.368;12.364;2022-09-24T03:04:38;10.40;99.90
15259;DHT22;34462;51.368;12.364;2022-09-24T03:07:06;10.40;99.90
15259;DHT22;34462;51.368;12.364;2022-09-24T03:09:34;10.40;99.90
15259;DHT22;34462;51.368;12.364;2022-09-24T03:12:03;10.40;99.90
15259;DHT22;34462;51.368;12.364;2022-09-24T03:14:31;10.40;99.90
15259;DHT22;34462;51.368;12.364;2022-09-24T03:16:59;10.60;99.90
15259;DHT22;34462;51.368;12.364;2022-09-24T03:19:27;10.60;99.90
15259;DHT22;34462;51.368;12.364;2022-09-24T03:21:56;10.60;99.90
15259;DHT22;34462;51.368;12.364;2022-09-24T03:24:24;10.60;99.90
15259;DHT22;34462;51.368;12.364;2022-09-24T03:26:52;10.60;99.90
15259;DHT22;34462;51.368;12.364;2022-09-24T03:29:20;10.60;99.90
15259;DHT22;34462;51.368;12.364;2022-09-24T03:32:08;10.60;99.90
15259;DHT22;34462;51.368;12.364;2022-09-24T03:34:35;10.60;99.90
15259;DHT22;34462;51.368;12.364;2022-09-24T03:37:05;10.60;99.90
15259;DHT22;34462;51.368;12.364;2022-09-24T03:39:33;10.60;99.90
15259;DHT22;34462;51.368;12.364;2022-09-24T03:42:00;10.60;99.90
15259;DHT22;34462;51.368;12.364;2022-09-24T03:44:28;10.60;99.90
15259;DHT22;34462;51.368;12.364;2022-09-24T03:46:57;10.60;99.90
15259;DHT22;34462;51.368;12.364;2022-09-24T03:49:25;10.60;99.90
15259;DHT22;34462;51.368;12.364;2022-09-24T03:51:53;10.50;99.90
15259;DHT22;34462;51.368;12.364;2022-09-24T03:54:22;10.50;99.90
15259;DHT22;34462;51.368;12.364;2022-09-24T03:56:50;10.40;99.90
15259;DHT22;34462;51.368;12.364;2022-09-24T03:59:18;10.40;99.90
15259;DHT22;34462;51.368;12.364;2022-09-24T04:01:46;10.40;99.90
15259;DHT22;34462;51.368;12.364;2022-09-24T04:04:14;10.40;99.90
15259;DHT22;34462;51.368;12.364;2022-09-24T04:06:42;10.40;99.90
15259;DHT22;34462;51.368;12.364;2022-09-24T04:09:10;10.40;99.90
15259;DHT22;34462;51.368;12.364;2022-09-24T04:11:40;10.40;99.90
15259;DHT22;34462;51.368;12.364;2022-09-24T04:14:09;10.30;99.90
15259;DHT22;34462;51.368;12.364;2022-09-24T04:16:37;10.30;99.90
15259;DHT22;34462;51.368;12.364;2022-09-24T04:19:05;10.20;99.90
15259;DHT22;34462;51.368;12.364;2022-09-24T04:21:34;10.20;99.90
15259;DHT22;34462;51.368;12.364;2022-09-24T04:24:02;10.30;99.90
15259;DHT22;34462;51.368;12.364;2022-09-24T04:26:30;10.20;99.90
15259;DHT22;34462;51.368;12.364;2022-09-24T04:28:59;10.20;99.90
15259;DHT22;34462;51.368;12.364;2022-09-24T04:31:27;10.10;99.90
15259;DHT22;34462;51.368;12.364;2022-09-24T04:33:58;10.10;99.90
15259;DHT22;34462;51.368;12.364;2022-09-24T04:36:27;10.10;99.90
15259;DHT22;34462;51.368;12.364;2022-09-24T04:38:55;10.00;99.90
15259;DHT22;34462;51.368;12.364;2022-09-24T04:41:23;10.00;99.90
15259;DHT22;34462;51.368;12.364;2022-09-24T04:43:51;9.90;99.90
15259;DHT22;34462;51.368;12.364;2022-09-24T04:46:21;9.90;99.90
15259;DHT22;34462;51.368;12.364;2022-09-24T04:48:49;9.90;99.90
15259;DHT22;34462;51.368;12.364;2022-09-24T04:51:17;9.90;99.90
15259;DHT22;34462;51.368;12.364;2022-09-24T04:53:46;9.90;99.90
15259;DHT22;34462;51.368;12.364;2022-09-24T04:56:16;9.90;99.90
15259;DHT22;34462;51.368;12.364;2022-09-24T04:58:48;9.90;99.90
15259;DHT22;34462;51.368;12.364;2022-09-24T05:01:17;9.90;99.90
15259;DHT22;34462;51.368;12.364;2022-09-24T05:03:47;9.90;99.90
15259;DHT22;34462;51.368;12.364;2022-09-24T05:06:15;9.80;99.90
15259;DHT22;34462;51.368;12.364;2022-09-24T05:08:43;10.00;99.90
15259;DHT22;34462;51.368;12.364;2022-09-24T05:11:11;9.70;99.90
15259;DHT22;34462;51.368;12.364;2022-09-24T05:13:39;9.70;99.90
15259;DHT22;34462;51.368;12.364;2022-09-24T05:16:07;9.70;99.90
15259;DHT22;34462;51.368;12.364;2022-09-24T05:18:36;9.60;99.90
15259;DHT22;34462;51.368;12.364;2022-09-24T05:21:06;9.60;99.90
15259;DHT22;34462;51.368;12.364;2022-09-24T05:23:34;9.60;99.90
15259;DHT22;34462;51.368;12.364;2022-09-24T05:26:02;9.60;99.90
15259;DHT22;34462;51.368;12.364;2022-09-24T05:28:48;9.60;99.90
15259;DHT22;34462;51.368;12.364;2022-09-24T05:31:16;9.60;99.90
15259;DHT22;34462;51.368;12.364;2022-09-24T05:33:44;9.60;99.90
15259;DHT22;34462;51.368;12.364;2022-09-24T05:36:13;9.60;99.90
15259;DHT22;34462;51.368;12.364;2022-09-24T05:38:41;9.70;99.90
15259;DHT22;34462;51.368;12.364;2022-09-24T05:41:09;9.70;99.90
15259;DHT22;34462;51.368;12.364;2022-09-24T05:43:37;9.70;99.90
15259;DHT22;34462;51.368;12.364;2022-09-24T05:46:06;9.70;99.90
15259;DHT22;34462;51.368;12.364;2022-09-24T05:48:34;9.70;99.90
15259;DHT22;34462;51.368;12.364;2022-09-24T05:51:03;9.70;99.90
15259;DHT22;34462;51.368;12.364;2022-09-24T05:53:33;9.60;99.90
15259;DHT22;34462;51.368;12.364;2022-09-24T05:56:02;9.80;99.90
15259;DHT22;34462;51.368;12.364;2022-09-24T05:58:30;9.90;99.90
15259;DHT22;34462;51.368;12.364;2022-09-24T06:00:58;9.90;99.90
15259;DHT22;34462;51.368;12.364;2022-09-24T06:03:27;10.00;99.90
15259;DHT22;34462;51.368;12.364;2022-09-24T06:05:57;10.00;99.90
15259;DHT22;34462;51.368;12.364;2022-09-24T06:08:29;10.10;99.90
15259;DHT22;34462;51.368;12.364;2022-09-24T06:11:00;10.20;99.90
15259;DHT22;34462;51.368;12.364;2022-09-24T06:13:31;10.30;99.90
15259;DHT22;34462;51.368;12.364;2022-09-24T06:16:00;10.50;99.90
15259;DHT22;34462;51.368;12.364;2022-09-24T06:18:29;10.60;99.90
15259;DHT22;34462;51.368;12.364;2022-09-24T06:21:00;10.70;99.90
15259;DHT22;34462;51.368;12.364;2022-09-24T06:23:29;10.80;99.90
15259;DHT22;34462;51.368;12.364;2022-09-24T06:25:57;10.90;99.90
15259;DHT22;34462;51.368;12.364;2022-09-24T06:28:27;10.90;99.90
15259;DHT22;34462;51.368;12.364;2022-09-24T06:30:58;11.10;99.90
15259;DHT22;34462;51.368;12.364;2022-09-24T06:33:26;11.10;99.90
15259;DHT22;34462;51.368;12.364;2022-09-24T06:35:59;11.20;99.90
15259;DHT22;34462;51.368;12.364;2022-09-24T06:38:28;11.30;99.90
15259;DHT22;34462;51.368;12.364;2022-09-24T06:40:58;11.40;99.90
15259;DHT22;34462;51.368;12.364;2022-09-24T06:43:28;11.50;99.90
15259;DHT22;34462;51.368;12.364;2022-09-24T06:45:58;11.50;99.90
15259;DHT22;34462;51.368;12.364;2022-09-24T06:48:27;11.50;99.90
15259;DHT22;34462;51.368;12.364;2022-09-24T06:50:56;11.60;99.90
15259;DHT22;34462;51.368;12.364;2022-09-24T06:53:25;11.70;99.90
15259;DHT22;34462;51.368;12.364;2022-09-24T06:55:56;11.80;99.90
15259;DHT22;34462;51.368;12.364;2022-09-24T06:58:25;11.90;99.90
15259;DHT22;34462;51.368;12.364;2022-09-24T07:00:56;11.90;99.90
15259;DHT22;34462;51.368;12.364;2022-09-24T07:03:26;12.00;99.90
15259;DHT22;34462;51.368;12.364;2022-09-24T07:05:55;12.10;99.90
15259;DHT22;34462;51.368;12.364;2022-09-24T07:08:26;12.20;99.90
15259;DHT22;34462;51.368;12.364;2022-09-24T07:10:54;12.20;99.90
15259;DHT22;34462;51.368;12.364;2022-09-24T07:13:22;12.30;99.90
15259;DHT22;34462;51.368;12.364;2022-09-24T07:15:51;12.20;99.90
15259;DHT22;34462;51.368;12.364;2022-09-24T07:18:20;12.20;99.90
15259;DHT22;34462;51.368;12.364;2022-09-24T07:20:52;12.10;99.90
15259;DHT22;34462;51.368;12.364;2022-09-24T07:23:21;12.10;99.90
15259;DHT22;34462;51.368;12.364;2022-09-24T07:25:53;12.10;99.90
15259;DHT22;34462;51.368;12.364;2022-09-24T07:28:22;12.10;99.90
15259;DHT22;34462;51.368;12.364;2022-09-24T07:30:55;12.20;99.90
15259;DHT22;34462;51.368;12.364;2022-09-24T07:33:26;12.30;99.90
15259;DHT22;34462;51.368;12.364;2022-09-24T07:35:54;12.40;99.90
15259;DHT22;34462;51.368;12.364;2022-09-24T07:38:23;12.50;99.90
15259;DHT22;34462;51.368;12.364;2022-09-24T07:40:51;12.50;99.90
15259;DHT22;34462;51.368;12.364;2022-09-24T07:43:23;12.60;99.90
15259;DHT22;34462;51.368;12.364;2022-09-24T07:45:52;12.70;99.90
15259;DHT22;34462;51.368;12.364;2022-09-24T07:48:21;12.90;99.90
15259;DHT22;34462;51.368;12.364;2022-09-24T07:50:51;13.10;99.90
15259;DHT22;34462;51.368;12.364;2022-09-24T07:53:19;13.20;99.90
15259;DHT22;34462;51.368;12.364;2022-09-24T07:55:47;13.30;99.90
15259;DHT22;34462;51.368;12.364;2022-09-24T07:58:15;13.50;99.90
15259;DHT22;34462;51.368;12.364;2022-09-24T08:00:44;13.60;99.90
15259;DHT22;34462;51.368;12.364;2022-09-24T08:03:12;13.70;99.90
15259;DHT22;34462;51.368;12.364;2022-09-24T08:05:43;13.90;99.90
15259;DHT22;34462;51.368;12.364;2022-09-24T08:08:14;14.00;99.90
15259;DHT22;34462;51.368;12.364;2022-09-24T08:10:42;14.00;99.90
15259;DHT22;34462;51.368;12.364;2022-09-24T08:13:10;14.20;99.90
15259;DHT22;34462;51.368;12.364;2022-09-24T08:15:38;14.40;99.90
15259;DHT22;34462;51.368;12.364;2022-09-24T08:18:07;14.50;99.90
15259;DHT22;34462;51.368;12.364;2022-09-24T08:20:37;14.60;99.90
15259;DHT22;34462;51.368;12.364;2022-09-24T08:23:06;14.70;99.90
15259;DHT22;34462;51.368;12.364;2022-09-24T08:25:37;14.80;99.90
15259;DHT22;34462;51.368;12.364;2022-09-24T08:28:07;14.80;99.90
15259;DHT22;34462;51.368;12.364;2022-09-24T08:30:37;14.80;99.90
15259;DHT22;34462;51.368;12.364;2022-09-24T08:33:06;15.00;99.90
15259;DHT22;34462;51.368;12.364;2022-09-24T08:35:35;15.00;99.90
15259;DHT22;34462;51.368;12.364;2022-09-24T08:38:05;15.10;99.90
15259;DHT22;34462;51.368;12.364;2022-09-24T08:40:38;15.10;99.90
15259;DHT22;34462;51.368;12.364;2022-09-24T08:43:26;15.20;99.90
15259;DHT22;34462;51.368;12.364;2022-09-24T08:46:12;15.10;99.90
15259;DHT22;34462;51.368;12.364;2022-09-24T08:49:01;15.20;99.90
15259;DHT22;34462;51.368;12.364;2022-09-24T08:51:37;15.30;99.90
15259;DHT22;34462;51.368;12.364;2022-09-24T08:54:12;15.40;99.90
15259;DHT22;34462;51.368;12.364;2022-09-24T08:56:45;15.30;99.90
15259;DHT22;34462;51.368;12.364;2022-09-24T08:59:23;15.50;99.90
15259;DHT22;34462;51.368;12.364;2022-09-24T09:02:02;15.70;99.90
15259;DHT22;34462;51.368;12.364;2022-09-24T09:05:01;15.90;99.90
15259;DHT22;34462;51.368;12.364;2022-09-24T09:07:46;16.10;99.90
15259;DHT22;34462;51.368;12.364;2022-09-24T09:10:23;16.10;99.90
15259;DHT22;34462;51.368;12.364;2022-09-24T09:13:01;16.30;99.90
15259;DHT22;34462;51.368;12.364;2022-09-24T09:15:40;16.20;99.90
15259;DHT22;34462;51.368;12.364;2022-09-24T09:18:15;16.20;99.90
15259;DHT22;34462;51.368;12.364;2022-09-24T09:20:48;16.20;99.90
15259;DHT22;34462;51.368;12.364;2022-09-24T09:23:18;16.40;99.90
15259;DHT22;34462;51.368;12.364;2022-09-24T09:25:51;16.50;99.90
15259;DHT22;34462;51.368;12.364;2022-09-24T09:28:25;16.70;99.90
15259;DHT22;34462;51.368;12.364;2022-09-24T09:31:01;16.50;99.90
15259;DHT22;34462;51.368;12.364;2022-09-24T09:33:55;16.50;99.90
15259;DHT22;34462;51.368;12.364;2022-09-24T09:36:43;16.60;99.90
15259;DHT22;34462;51.368;12.364;2022-09-24T09:39:30;16.60;99.90
15259;DHT22;34462;51.368;12.364;2022-09-24T09:42:15;16.60;99.90
15259;DHT22;34462;51.368;12.364;2022-09-24T09:44:54;16.50;99.90
15259;DHT22;34462;51.368;12.364;2022-09-24T09:47:31;16.60;99.90
15259;DHT22;34462;51.368;12.364;2022-09-24T09:50:14;16.60;99.90
15259;DHT22;34462;51.368;12.364;2022-09-24T09:52:52;16.70;99.90
15259;DHT22;34462;51.368;12.364;2022-09-24T09:55:22;16.70;99.90
15259;DHT22;34462;51.368;12.364;2022-09-24T09:57:52;16.90;99.90
15259;DHT22;34462;51.368;12.364;2022-09-24T10:00:37;17.00;99.90
15259;DHT22;34462;51.368;12.364;2022-09-24T10:03:05;17.00;99.90
15259;DHT22;34462;51.368;12.364;2022-09-24T10:05:52;17.00;99.90
15259;DHT22;34462;51.368;12.364;2022-09-24T10:08:23;17.00;99.90
15259;DHT22;34462;51.368;12.364;2022-09-24T10:10:52;17.10;99.90
15259;DHT22;34462;51.368;12.364;2022-09-24T10:13:25;17.10;99.90
15259;DHT22;34462;51.368;12.364;2022-09-24T10:15:56;17.10;99.90
15259;DHT22;34462;51.368;12.364;2022-09-24T10:18:29;17.20;99.90
15259;DHT22;34462;51.368;12.364;2022-09-24T10:21:02;17.30;99.90
15259;DHT22;34462;51.368;12.364;2022-09-24T10:23:35;17.30;99.90
15259;DHT22;34462;51.368;12.364;2022-09-24T10:26:07;17.40;99.90
15259;DHT22;34462;51.368;12.364;2022-09-24T10:28:40;17.40;99.90
15259;DHT22;34462;51.368;12.364;2022-09-24T10:31:36;17.60;99.90
15259;DHT22;34462;51.368;12.364;2022-09-24T10:34:19;17.60;99.90
15259;DHT22;34462;51.368;12.364;2022-09-24T10:36:51;17.70;99.90
15259;DHT22;34462;51.368;12.364;2022-09-24T10:39:20;17.70;99.90
15259;DHT22;34462;51.368;12.364;2022-09-24T10:41:50;17.70;99.90
15259;DHT22;34462;51.368;12.364;2022-09-24T10:44:20;17.80;99.90
15259;DHT22;34462;51.368;12.364;2022-09-24T10:47:16;17.80;99.90
15259;DHT22;34462;51.368;12.364;2022-09-24T10:50:14;17.90;99.90
15259;DHT22;34462;51.368;12.364;2022-09-24T10:52:52;18.00;99.90
15259;DHT22;34462;51.368;12.364;2022-09-24T10:55:38;18.00;99.90
15259;DHT22;34462;51.368;12.364;2022-09-24T10:58:29;18.20;99.90
15259;DHT22;34462;51.368;12.364;2022-09-24T11:01:10;18.40;99.90
15259;DHT22;34462;51.368;12.364;2022-09-24T11:04:11;18.60;99.90
15259;DHT22;34462;51.368;12.364;2022-09-24T11:07:05;19.00;99.90
15259;DHT22;34462;51.368;12.364;2022-09-24T11:09:55;19.30;99.90
15259;DHT22;34462;51.368;12.364;2022-09-24T11:12:31;19.50;99.90
15259;DHT22;34462;51.368;12.364;2022-09-24T11:15:18;19.70;99.90
15259;DHT22;34462;51.368;12.364;2022-09-24T11:18:13;19.90;99.90
15259;DHT22;34462;51.368;12.364;2022-09-24T11:20:58;19.90;99.90
15259;DHT22;34462;51.368;12.364;2022-09-24T11:23:49;19.80;99.90
15259;DHT22;34462;51.368;12.364;2022-09-24T11:26:37;20.00;99.90
15259;DHT22;34462;51.368;12.364;2022-09-24T11:29:29;20.10;99.90
15259;DHT22;34462;51.368;12.364;2022-09-24T11:32:16;20.00;99.90
15259;DHT22;34462;51.368;12.364;2022-09-24T11:38:02;19.70;99.90
15259;DHT22;34462;51.368;12.364;2022-09-24T11:40:45;19.90;99.90
15259;DHT22;34462;51.368;12.364;2022-09-24T11:43:49;20.40;99.90
15259;DHT22;34462;51.368;12.364;2022-09-24T11:46:38;20.80;99.90
15259;DHT22;34462;51.368;12.364;2022-09-24T11:49:32;20.90;99.90
15259;DHT22;34462;51.368;12.364;2022-09-24T11:52:12;21.10;99.90
15259;DHT22;34462;51.368;12.364;2022-09-24T11:55:00;21.10;99.90
15259;DHT22;34462;51.368;12.364;2022-09-24T11:57:35;21.10;99.90
15259;DHT22;34462;51.368;12.364;2022-09-24T12:00:13;21.00;99.90
15259;DHT22;34462;51.368;12.364;2022-09-24T12:02:47;20.90;99.90
15259;DHT22;34462;51.368;12.364;2022-09-24T12:05:25;20.70;99.90
15259;DHT22;34462;51.368;12.364;2022-09-24T12:08:01;20.60;99.90
15259;DHT22;34462;51.368;12.364;2022-09-24T12:10:40;20.40;99.90
15259;DHT22;34462;51.368;12.364;2022-09-24T12:13:15;20.40;99.90
15259;DHT22;34462;51.368;12.364;2022-09-24T12:15:52;20.30;99.90
15259;DHT22;34462;51.368;12.364;2022-09-24T12:18:26;20.20;99.90
15259;DHT22;34462;51.368;12.364;2022-09-24T12:21:01;20.00;99.90
15259;DHT22;34462;51.368;12.364;2022-09-24T12:23:37;19.80;99.90
15259;DHT22;34462;51.368;12.364;2022-09-24T12:26:09;19.70;99.90
15259;DHT22;34462;51.368;12.364;2022-09-24T12:28:47;19.60;99.90
15259;DHT22;34462;51.368;12.364;2022-09-24T12:31:59;19.60;99.90
15259;DHT22;34462;51.368;12.364;2022-09-24T12:34:57;19.40;99.90
15259;DHT22;34462;51.368;12.364;2022-09-24T12:37:35;19.40;99.90
15259;DHT22;34462;51.368;12.364;2022-09-24T12:40:17;19.40;99.90
15259;DHT22;34462;51.368;12.364;2022-09-24T12:43:12;19.60;99.90
15259;DHT22;34462;51.368;12.364;2022-09-24T12:45:54;19.70;99.90
15259;DHT22;34462;51.368;12.364;2022-09-24T12:48:25;19.90;99.90
15259;DHT22;34462;51.368;12.364;2022-09-24T12:50:56;20.00;99.90
15259;DHT22;34462;51.368;12.364;2022-09-24T12:53:31;20.00;99.90
15259;DHT22;34462;51.368;12.364;2022-09-24T12:56:03;19.90;99.90
15259;DHT22;34462;51.368;12.364;2022-09-24T12:58:38;19.80;99.90
15259;DHT22;34462;51.368;12.364;2022-09-24T13:01:24;19.70;99.90
15259;DHT22;34462;51.368;12.364;2022-09-24T13:06:54;19.90;99.90
15259;DHT22;34462;51.368;12.364;2022-09-24T13:09:34;20.20;99.90
15259;DHT22;34462;51.368;12.364;2022-09-24T13:12:21;20.30;99.90
15259;DHT22;34462;51.368;12.364;2022-09-24T13:15:00;20.70;99.90
15259;DHT22;34462;51.368;12.364;2022-09-24T13:17:32;20.80;99.90
15259;DHT22;34462;51.368;12.364;2022-09-24T13:20:06;20.90;99.90
15259;DHT22;34462;51.368;12.364;2022-09-24T13:22:55;20.60;99.90
15259;DHT22;34462;51.368;12.364;2022-09-24T13:25:26;20.60;99.90
15259;DHT22;34462;51.368;12.364;2022-09-24T13:27:56;20.50;99.90
15259;DHT22;34462;51.368;12.364;2022-09-24T13:30:37;20.60;99.90
15259;DHT22;34462;51.368;12.364;2022-09-24T13:33:20;20.70;99.90
15259;DHT22;34462;51.368;12.364;2022-09-24T13:36:02;20.70;99.90
15259;DHT22;34462;51.368;12.364;2022-09-24T13:38:43;20.80;99.90
15259;DHT22;34462;51.368;12.364;2022-09-24T13:41:26;20.80;99.90
15259;DHT22;34462;51.368;12.364;2022-09-24T13:44:15;20.80;99.90
15259;DHT22;34462;51.368;12.364;2022-09-24T13:46:52;21.00;99.90
15259;DHT22;34462;51.368;12.364;2022-09-24T13:49:26;21.00;99.90
15259;DHT22;34462;51.368;12.364;2022-09-24T13:52:07;21.00;99.90
15259;DHT22;34462;51.368;12.364;2022-09-24T13:54:47;20.80;99.90
15259;DHT22;34462;51.368;12.364;2022-09-24T13:57:22;20.70;99.90
15259;DHT22;34462;51.368;12.364;2022-09-24T14:00:04;20.70;99.90
15259;DHT22;34462;51.368;12.364;2022-09-24T14:02:51;20.80;99.90
15259;DHT22;34462;51.368;12.364;2022-09-24T14:05:22;20.90;99.90
15259;DHT22;34462;51.368;12.364;2022-09-24T14:07:53;20.70;99.90
15259;DHT22;34462;51.368;12.364;2022-09-24T14:10:24;20.70;99.90
15259;DHT22;34462;51.368;12.364;2022-09-24T14:13:09;20.60;99.90
15259;DHT22;34462;51.368;12.364;2022-09-24T14:15:50;20.70;99.90
15259;DHT22;34462;51.368;12.364;2022-09-24T14:18:22;20.70;99.90
15259;DHT22;34462;51.368;12.364;2022-09-24T14:20:54;20.70;99.90
15259;DHT22;34462;51.368;12.364;2022-09-24T14:23:30;20.80;99.90
15259;DHT22;34462;51.368;12.364;2022-09-24T14:26:03;20.70;99.90
15259;DHT22;34462;51.368;12.364;2022-09-24T14:28:33;20.60;99.90
15259;DHT22;34462;51.368;12.364;2022-09-24T14:31:01;20.60;99.90
15259;DHT22;34462;51.368;12.364;2022-09-24T14:33:36;20.40;99.90
15259;DHT22;34462;51.368;12.364;2022-09-24T14:36:09;20.10;99.90
15259;DHT22;34462;51.368;12.364;2022-09-24T14:38:47;19.90;99.90
15259;DHT22;34462;51.368;12.364;2022-09-24T14:41:21;19.80;99.90
15259;DHT22;34462;51.368;12.364;2022-09-24T14:43:53;19.60;99.90
15259;DHT22;34462;51.368;12.364;2022-09-24T14:46:26;19.50;99.90
15259;DHT22;34462;51.368;12.364;2022-09-24T14:49:13;19.40;99.90
15259;DHT22;34462;51.368;12.364;2022-09-24T14:51:52;19.30;99.90
15259;DHT22;34462;51.368;12.364;2022-09-24T14:54:27;19.10;99.90
15259;DHT22;34462;51.368;12.364;2022-09-24T14:57:08;18.90;99.90
15259;DHT22;34462;51.368;12.364;2022-09-24T14:59:38;18.80;99.90
15259;DHT22;34462;51.368;12.364;2022-09-24T15:02:15;18.70;99.90
15259;DHT22;34462;51.368;12.364;2022-09-24T15:04:51;18.70;99.90
15259;DHT22;34462;51.368;12.364;2022-09-24T15:07:23;18.60;99.90
15259;DHT22;34462;51.368;12.364;2022-09-24T15:09:54;18.60;99.90
15259;DHT22;34462;51.368;12.364;2022-09-24T15:12:26;18.70;99.90
15259;DHT22;34462;51.368;12.364;2022-09-24T15:14:59;18.70;99.90
15259;DHT22;34462;51.368;12.364;2022-09-24T15:17:30;18.70;99.90
15259;DHT22;34462;51.368;12.364;2022-09-24T15:20:02;18.80;99.90
15259;DHT22;34462;51.368;12.364;2022-09-24T15:22:31;18.80;99.90
15259;DHT22;34462;51.368;12.364;2022-09-24T15:24:59;18.90;99.90
15259;DHT22;34462;51.368;12.364;2022-09-24T15:27:29;18.80;99.90
15259;DHT22;34462;51.368;12.364;2022-09-24T15:30:00;18.90;99.90
15259;DHT22;34462;51.368;12.364;2022-09-24T15:32:31;18.80;99.90
15259;DHT22;34462;51.368;12.364;2022-09-24T15:35:04;18.70;99.90
15259;DHT22;34462;51.368;12.364;2022-09-24T15:37:37;18.60;99.90
15259;DHT22;34462;51.368;12.364;2022-09-24T15:40:09;18.60;99.90
15259;DHT22;34462;51.368;12.364;2022-09-24T15:42:44;18.60;99.90
15259;DHT22;34462;51.368;12.364;2022-09-24T15:45:16;18.50;99.90
15259;DHT22;34462;51.368;12.364;2022-09-24T15:47:47;18.50;99.90
15259;DHT22;34462;51.368;12.364;2022-09-24T15:50:17;18.40;99.90
15259;DHT22;34462;51.368;12.364;2022-09-24T15:52:48;18.30;99.90
15259;DHT22;34462;51.368;12.364;2022-09-24T15:55:20;18.30;99.90
15259;DHT22;34462;51.368;12.364;2022-09-24T15:57:49;18.20;99.90
15259;DHT22;34462;51.368;12.364;2022-09-24T16:00:20;18.10;99.90
15259;DHT22;34462;51.368;12.364;2022-09-24T16:02:50;18.10;99.90
15259;DHT22;34462;51.368;12.364;2022-09-24T16:05:23;18.00;99.90
15259;DHT22;34462;51.368;12.364;2022-09-24T16:07:52;18.00;99.90